• Join FlightAware (Why Join?)
  • Login
  • US Flag GB Flag 
09:01 EDT


 

Airport Tracker/Info


-or-


 

Live Flight TrackerFlight Track Log ✈ ABX501 ✈ 20-Oct-2013 ✈ KCVG - KIAH

Flight Track Log - Related Links

Times and Time Zones

All times are in EDT time to prevent confusion due to time zone crossing. See the ABX501 flight status page for this flight to view local times or setup timezone preferences in your user account.

Time Position Orientation Groundspeed Altitude Reporting Facility
EDT Latitude Longitude Course Direction KTS MPH feet Rate Location/Type
18:17 39.0500 -84.6833 270° West 155 178 1,300  Level Cincinnati TRACON
18:18 39.0500 -84.7000 270° West 158 182 2,100 1,800 Climbing Cincinnati TRACON
18:19 39.0500 -84.7833 270° West 205 236 3,900 1,920 Climbing Cincinnati TRACON
18:20 39.0000 -84.8167 207° Southwest 258 297 6,000 2,280 Climbing Cincinnati TRACON
18:22 38.8664 -84.8614 195° South 272 313 10,500 1,980 Climbing Indianapolis Center
18:23 38.7828 -84.9008 200° South 328 377 11,900 1,980 Climbing Indianapolis Center
18:24 38.7067 -84.9772 218° Southwest 349 402 14,700 2,700 Climbing Indianapolis Center
18:25 38.6297 -85.0844 227° Southwest 353 406 17,600 2,460 Climbing Indianapolis Center
18:26 38.5639 -85.1817 229° Southwest 361 415 19,900 2,220 Climbing Indianapolis Center
18:27 38.4989 -85.2775 229° Southwest 366 421 22,300 2,100 Climbing Indianapolis Center
18:28 38.4286 -85.3783 228° Southwest 374 430 24,300 1,800 Climbing Indianapolis Center
18:29 38.3439 -85.5022 229° Southwest 382 440 26,100 840 Climbing Indianapolis Center
18:30 38.2692 -85.6089 228° Southwest 395 455 26,100 300 Level Indianapolis Center
18:31 38.1950 -85.7128 228° Southwest 395 455 26,800 1,200 Climbing Indianapolis Center
18:32 38.1217 -85.8189 229° Southwest 397 457 28,600 1,620 Climbing Indianapolis Center
18:33 38.0467 -85.9278 229° Southwest 405 466 30,200 1,740 Climbing Indianapolis Center
18:34 37.9706 -86.0336 228° Southwest 404 465 32,200 1,740 Climbing Indianapolis Center
18:35 37.8969 -86.1400 229° Southwest 400 460 33,800 840 Climbing Indianapolis Center
18:36 37.8161 -86.2536 228° Southwest 394 453 34,000 60 Climbing Indianapolis Center
18:37 37.7456 -86.3553 229° Southwest 385 443 34,000  Level Indianapolis Center
18:38 37.6714 -86.4558 227° Southwest 386 444 34,000  Level Indianapolis Center
18:39 37.5889 -86.5714 228° Southwest 396 456 34,000  Level Indianapolis Center
18:40 37.5089 -86.6828 228° Southwest 399 459 34,000  Level Indianapolis Center
18:41 37.4344 -86.7867 228° Southwest 397 457 34,000  Level Indianapolis Center
18:42 37.3592 -86.8914 228° Southwest 400 460 34,000  Level Indianapolis Center
18:43 37.2842 -86.9947 228° Southwest 399 459 34,000  Level Indianapolis Center
18:44 37.2100 -87.0981 228° Southwest 396 456 34,000  Level Indianapolis Center
18:45 37.1347 -87.2008 227° Southwest 397 457 34,000  Level Indianapolis Center
18:46 37.0483 -87.3197 228° Southwest 394 453 34,000  Level Indianapolis Center
18:47 36.9731 -87.4217 227° Southwest 393 452 34,000  Level Memphis Center
18:48 36.8992 -87.5233 228° Southwest 393 452 34,000  Level Memphis Center
18:50 36.8244 -87.6228 227° Southwest 392 451 34,000  Level Memphis Center
18:51 36.7503 -87.7222 227° Southwest 390 449 34,000  Level Memphis Center
18:52 36.6772 -87.8219 228° Southwest 389 448 34,000  Level Memphis Center
18:53 36.6028 -87.9214 227° Southwest 389 448 34,000  Level Memphis Center
18:54 36.5161 -88.0369 227° Southwest 389 448 34,000  Level Memphis Center
18:55 36.4481 -88.1272 227° Southwest 389 448 34,000  Level Memphis Center
18:56 36.3739 -88.2258 227° Southwest 389 448 34,000  Level Memphis Center
18:57 36.3003 -88.3228 227° Southwest 387 445 34,000  Level Memphis Center
18:58 36.2117 -88.4408 227° Southwest 387 445 34,000  Level Memphis Center
18:59 36.1369 -88.5383 227° Southwest 388 447 34,000  Level Memphis Center
19:00 36.0619 -88.6369 227° Southwest 390 449 34,000  Level Memphis Center
19:01 35.9858 -88.7347 226° Southwest 391 450 34,000  Level Memphis Center
19:02 35.9111 -88.8331 227° Southwest 390 449 34,000  Level Memphis Center
19:03 35.8358 -88.9308 226° Southwest 391 450 34,000  Level Memphis Center
19:04 35.7603 -89.0289 226° Southwest 392 451 34,000  Level Memphis Center
19:05 35.6817 -89.1300 226° Southwest 390 449 34,000  Level Memphis Center
19:06 35.5933 -89.2436 226° Southwest 390 449 34,000  Level Memphis Center
19:07 35.5178 -89.3408 226° Southwest 390 449 34,000  Level Memphis Center
19:08 35.4417 -89.4386 226° Southwest 392 451 34,000  Level Memphis Center
19:09 35.3669 -89.5350 226° Southwest 389 448 34,000  Level Memphis Center
19:10 35.2922 -89.6308 226° Southwest 387 445 34,000  Level Memphis Center
19:11 35.2125 -89.7217 223° Southwest 389 448 34,000  Level Memphis Center
19:12 35.1267 -89.8044 218° Southwest 391 450 34,000  Level Memphis Center
19:13 35.0261 -89.9008 218° Southwest 394 453 34,000  Level Memphis Center
19:14 34.9408 -89.9839 219° Southwest 394 453 34,000  Level Memphis Center
19:15 34.8544 -90.0650 218° Southwest 394 453 34,000  Level Memphis Center
19:16 34.7672 -90.1469 218° Southwest 395 455 34,000  Level Memphis Center
19:17 34.6806 -90.2275 217° Southwest 391 450 34,000  Level Memphis Center
19:18 34.5789 -90.3242 218° Southwest 393 452 34,000  Level Memphis Center
19:20 34.4914 -90.4050 217° Southwest 394 453 34,000  Level Memphis Center
19:21 34.4033 -90.4875 218° Southwest 395 455 34,000  Level Memphis Center
19:22 34.3158 -90.5703 218° Southwest 397 457 34,000  Level Memphis Center
19:23 34.2267 -90.6514 217° Southwest 397 457 34,000  Level Memphis Center
19:24 34.1386 -90.7331 218° Southwest 396 456 34,000  Level Memphis Center
19:25 34.0514 -90.8144 218° Southwest 393 452 34,000  Level Memphis Center
19:26 33.9486 -90.9083 217° Southwest 394 453 34,000  Level Memphis Center
19:27 33.8600 -90.9889 217° Southwest 394 453 34,000  Level Memphis Center
19:28 33.7844 -91.0600 218° Southwest 392 451 34,000  Level Memphis Center
19:29 33.6806 -91.1544 217° Southwest 393 452 34,000  Level Memphis Center
19:30 33.5947 -91.2331 217° Southwest 393 452 34,000  Level Memphis Center
19:31 33.5072 -91.3108 217° Southwest 393 452 34,000  Level Memphis Center
19:32 33.4208 -91.3894 217° Southwest 393 452 34,000  Level Memphis Center
19:33 33.3356 -91.4650 217° Southwest 389 448 34,000  Level Memphis Center
19:34 33.2347 -91.5583 218° Southwest 386 444 34,000  Level Memphis Center
19:35 33.1486 -91.6344 217° Southwest 387 445 34,000  Level Memphis Center
19:36 33.0628 -91.7117 217° Southwest 389 448 34,000  Level Memphis Center
19:37 32.9781 -91.7869 217° Southwest 386 444 34,000  Level Memphis Center
19:38 32.8750 -91.8786 217° Southwest 386 444 34,000  Level Memphis Center
19:39 32.8061 -91.9417 218° Southwest 385 443 34,000  Level Fort Worth Center
19:41 32.6186 -92.1081 217° Southwest 383 441 34,000  Level Memphis Center
19:42 32.5325 -92.1850 217° Southwest 384 442 34,000  Level Memphis Center
19:43 32.4475 -92.2614 217° Southwest 384 442 34,000  Level Memphis Center
19:45 32.3264 -92.3675 217° Southwest 385 443 34,000  Level Houston Center
19:46 32.2425 -92.4442 218° Southwest 383 441 34,000  Level Houston Center
19:47 32.1558 -92.5186 216° Southwest 385 443 34,000  Level Houston Center
19:48 32.0697 -92.5931 216° Southwest 384 442 34,000 -60 Level Houston Center
19:49 31.9861 -92.6686 217° Southwest 380 437 33,900  Descending Houston Center
19:50 31.9033 -92.7456 218° Southwest 379 436 34,000  Climbing Houston Center
19:51 31.8225 -92.8247 220° Southwest 378 435 34,000 -60 Level Houston Center
19:52 31.7250 -92.9183 219° Southwest 378 435 33,900  Descending Houston Center
19:53 31.6481 -92.9911 219° Southwest 362 417 34,000  Climbing Houston Center
19:54 31.5733 -93.0631 219° Southwest 351 404 34,000  Level Houston Center
19:55 31.4994 -93.1353 220° Southwest 347 399 34,000  Level Houston Center
19:56 31.4242 -93.2058 219° Southwest 348 400 34,000  Level Houston Center
19:57 31.3408 -93.2872 220° Southwest 348 400 34,000  Level Houston Center
19:58 31.2589 -93.3644 219° Southwest 350 403 34,000  Level Houston Center
19:59 31.1839 -93.4356 219° Southwest 348 400 34,000  Level Houston Center
20:00 31.1089 -93.5083 220° Southwest 350 403 34,000  Level Houston Center
20:01 31.0342 -93.5786 219° Southwest 348 400 34,000  Level Houston Center
20:02 30.9594 -93.6497 219° Southwest 346 398 34,000 -120 Level Houston Center
20:03 30.8694 -93.7356 219° Southwest 351 404 33,800 -1,440 Descending Houston Center
20:04 30.7925 -93.8078 219° Southwest 354 407 31,100 -2,580 Descending Houston Center
20:05 30.7156 -93.8817 220° Southwest 360 414 28,500 -2,520 Descending Houston Center
20:06 30.6397 -93.9536 219° Southwest 357 411 26,000 -2,460 Descending Houston Center
20:07 30.5644 -94.0233 219° Southwest 351 404 23,500 -2,520 Descending Houston Center
20:08 30.4900 -94.0931 219° Southwest 348 400 20,900 -2,760 Descending Houston Center
20:09 30.4011 -94.1767 219° Southwest 346 398 17,900 -2,820 Descending Houston Center
20:10 30.3792 -94.1978 220° Southwest 346 398 17,300 -2,460 Descending Houston Center
20:10 30.3264 -94.2472 219° Southwest 347 399 15,400 -2,640 Descending Houston Center
20:11 30.3119 -94.2600 217° Southwest 348 400 14,900 -2,340 Descending Houston Center
20:11 30.2508 -94.3175 219° Southwest 348 400 13,000 -2,340 Descending Houston Center
20:11 30.2386 -94.3253 209° Southwest 350 403 12,800 -1,320 Descending Houston Center
20:12 30.1911 -94.3861 228° Southwest 305 351 11,700 -1,260 Descending Houston Center
20:13 30.1792 -94.4056 235° Southwest 265 305 11,400 -1,260 Descending Houston Center
20:13 30.1494 -94.4556 236° Southwest 266 306 10,400 -1,440 Descending Houston Center
20:13 30.1392 -94.4689 228° Southwest 267 307 10,100 -1,320 Descending Houston Center
20:15 30.0944 -94.5472 237° Southwest 273 314 8,900 -1,020 Descending Houston Center
20:16 30.0625 -94.6014 236° Southwest 270 311 8,100 -1,140 Descending Houston Center
20:16 30.0489 -94.6208 231° Southwest 266 306 7,800 -1,140 Descending Houston Center
20:17 30.0206 -94.6706 237° Southwest 264 304 7,000 -1,140 Descending Houston Center
20:17 30.0053 -94.6914 230° Southwest 262 302 6,700 -2,160 Descending Houston Center
20:18 29.9728 -94.7542 239° Southwest 260 299 4,800 -2,220 Descending Houston Center
20:18 29.9744 -94.7631 282° West 256 295 4,500 -1,020 Descending Houston Center
20:19 29.9772 -94.8383 272° West 266 306 3,800 -840 Descending Houston Center
20:19 29.9761 -94.8472 262° West 260 299 3,700 -780 Descending Houston Center
20:20 29.9783 -94.9158 272° West 249 287 3,000 -840 Descending Houston Center
20:20 29.9756 -94.9294 257° West 234 269 2,900 -540 Descending Houston Center
20:21 29.9772 -94.9919 272° West 233 268 2,500 -420 Descending Houston Center
20:21 29.9783 -94.9894 63° Northeast 236 272 2,500 -300 Level Houston Center
20:22 29.9761 -95.0692 268° West 224 258 2,200 -300 Descending Houston Center
20:22 29.9781 -95.0614 74° East 227 261 2,200  Level Houston Center
20:23 29.9781 -95.1319 270° West 224 258 2,200 -240 Level Houston Center
20:24 29.9781 -95.2017 270° West 165 190 1,800 -540 Descending Houston Center
20:24 29.9783 -95.2053 275° West 190 219 1,700 -900 Descending Houston Center
20:25 29.9769 -95.2572 268° West 145 167 900 -780 Descending Houston Center
20:25 29.9783 -95.2578 341° North 169 194 900 -540 Level Houston Center
20:26 29.9792 -95.3092 271° West 159 183 300 -600 Descending Houston Center
20:28 29.9833 -95.3333 274° West  Level FlightAware Approximate